La Paz, Mexico

11:25 PM MDT on August 28, 2014 (GMT -0600)
Gen Manuel Marquez De Leon | Change Station
CLOSE
Current Station
Airport
Location: La Paz,
Elevation: 69 ft
Nearby Weather Stations

Elev 69 ft 24.07 °N, 110.36 °W | Updated 45 minutes ago

Clear
Clear
86 °F
Feels Like 95 °F
N
9
Wind Variable Wind from South

Today
High -- | Low -- °F
--% Chance of Precip.
Yesterday
High -- | Low -- °F
Precip. -- in
7:01 AM 7:43 PM
Waxing Crescent, 12% visible
Pressure 29.82 in
Visibility 10.0 miles
Clouds Clear
Heat Index 95 °F
Dew Point 75 °F
Humidity 70%
Rainfall 0.00 in
Snow Depth Not available.
UV 0 out of 12
Pollen Not available.
Air Quality Not available.
Flu Activity Not available.
METAR MMLP 290440Z 19008KT 10SM SKC 30/24 A2982

More Conditions Fewer Conditions

Pressure 29.82 in
Visibility 10.0 miles
Clouds Clear
Heat Index 95 °F
Dew Point 75 °F
Humidity 70%
Rainfall 0.00 in
Snow Depth Not available.
UV 0 out of 12
Pollen Not available.
Air Quality Not available.
Flu Activity Not available.
METAR MMLP 290440Z 19008KT 10SM SKC 30/24 A2982

More Conditions Fewer Conditions

10-Day Weather Forecast

Almanac

Astronomy

Aug. 28, 2014 Rise Set
Actual Time 7:01 AM MDT 7:43 PM MDT
Civil Twilight 6:38 AM MDT 8:06 PM MDT
Nautical Twilight 6:11 AM MDT 8:33 PM MDT
Astronomical Twilight 5:43 AM MDT 9:01 PM MDT
Moon 9:33 AM MDT (8/28) 9:35 PM MDT (8/28)
Length of Visible Light 13h 27m
Length of Day
12h 41m
Tomorrow will be 1m 18s shorter.
Waxing Crescent, 12% of the Moon is Illuminated
Aug 29
Waxing Crescent
Sep 2
First Quarter
Sep 8
Full
Sep 15
Last Quarter
Sep 24
New

Today's Extremes

Country Highs Country Lows

Community

WunderPhotos

Upload Photos

1,748,192 photos uploaded!

Nearby

Snow Depth

Not available.

Earthquake Activity

City Distance Mag. Time & Date
No recent earthquake activity has been reported nearby.
Minimum magnitude displayed is 2.5.

Coastal Water Temperatures

Place Temperature
No Stations Reporting

Nearby Weather Stations